createdAt,value
2018-12-11T00:00:00.854Z,7.90
2018-12-11T00:02:31.225Z,9.17
2018-12-11T00:05:01.604Z,9.53
2018-12-11T00:07:31.980Z,8.07
2018-12-11T00:10:02.620Z,17.70
2018-12-11T00:12:32.947Z,16.53
2018-12-11T00:15:03.329Z,14.20
2018-12-11T00:17:34.907Z,11.97
2018-12-11T00:20:05.345Z,11.43
2018-12-11T00:22:35.730Z,7.53
2018-12-11T00:25:06.176Z,7.17
2018-12-11T00:27:36.817Z,5.93
2018-12-11T00:30:08.019Z,7.47
2018-12-11T00:32:39.371Z,4.80
2018-12-11T00:35:10.955Z,7.30
2018-12-11T00:37:41.283Z,7.87
2018-12-11T00:40:11.719Z,8.93
2018-12-11T00:42:42.859Z,8.07
2018-12-11T00:45:14.064Z,6.70
2018-12-11T00:47:46.682Z,6.53
2018-12-11T00:50:18.298Z,10.93
2018-12-11T00:52:48.674Z,6.43
2018-12-11T00:55:19.138Z,10.67
2018-12-11T00:57:50.554Z,6.53
2018-12-11T01:00:21.016Z,8.90
2018-12-11T01:02:51.399Z,7.07
2018-12-11T01:05:22.605Z,7.80
2018-12-11T01:07:52.977Z,8.93
2018-12-11T01:10:24.205Z,8.90
2018-12-11T01:12:54.580Z,9.30
2018-12-11T01:15:24.986Z,5.10
2018-12-11T01:18:01.304Z,7.20
2018-12-11T01:20:31.932Z,7.13
2018-12-11T01:23:02.324Z,11.70
2018-12-11T01:28:17.683Z,5.33
2018-12-11T01:30:48.108Z,8.40
2018-12-11T01:33:18.478Z,5.93
2018-12-11T01:35:48.916Z,8.50
2018-12-11T01:38:22.365Z,9.43
2018-12-11T01:40:55.024Z,7.30
2018-12-11T01:43:25.405Z,9.13
2018-12-11T01:45:55.795Z,7.97
2018-12-11T01:48:26.413Z,8.93
2018-12-11T01:50:56.847Z,9.27
2018-12-11T01:53:27.217Z,9.13
2018-12-11T01:55:57.639Z,9.63
2018-12-11T01:58:28.481Z,7.57
2018-12-11T02:00:58.865Z,8.13
2018-12-11T02:03:29.325Z,7.43
2018-12-11T02:05:59.704Z,9.20
2018-12-11T02:08:30.086Z,8.80
2018-12-11T02:11:00.523Z,8.17
2018-12-11T02:13:30.898Z,9.17
2018-12-11T02:16:01.333Z,7.07
2018-12-11T02:18:31.705Z,6.90
2018-12-11T02:21:02.138Z,6.27
2018-12-11T02:23:33.475Z,7.83
2018-12-11T02:26:03.909Z,6.63
2018-12-11T02:28:34.294Z,6.83
2018-12-11T02:31:04.740Z,6.47
2018-12-11T02:33:35.810Z,6.53
2018-12-11T02:36:07.215Z,6.33
2018-12-11T02:38:37.588Z,6.77
2018-12-11T02:41:07.985Z,6.03
2018-12-11T02:43:38.359Z,9.13
2018-12-11T02:46:15.961Z,8.77
2018-12-11T02:48:46.331Z,9.17
2018-12-11T02:51:16.708Z,10.77
2018-12-11T02:53:47.335Z,9.87
2018-12-11T02:56:21.906Z,7.80
2018-12-11T02:58:53.322Z,9.73
2018-12-11T03:01:23.704Z,9.43
2018-12-11T03:03:54.087Z,7.53
2018-12-11T03:06:24.467Z,9.87
2018-12-11T03:08:54.845Z,9.80
2018-12-11T03:11:37.561Z,8.80
2018-12-11T03:14:07.765Z,8.03
2018-12-11T03:16:38.208Z,7.13
2018-12-11T03:19:08.593Z,6.93
2018-12-11T03:21:38.977Z,9.27
2018-12-11T03:24:11.135Z,6.53
2018-12-11T03:26:41.450Z,7.47
2018-12-11T03:29:12.114Z,10.87
2018-12-11T03:31:42.779Z,6.43
2018-12-11T03:34:15.213Z,8.47
2018-12-11T03:36:45.600Z,7.53
2018-12-11T03:39:17.916Z,8.13
2018-12-11T03:41:48.347Z,6.37
2018-12-11T03:44:19.502Z,6.50
2018-12-11T03:46:49.870Z,6.27
2018-12-11T03:49:20.317Z,6.03
2018-12-11T03:51:50.699Z,6.73
2018-12-11T03:54:21.078Z,8.73
2018-12-11T03:56:51.451Z,9.83
2018-12-11T03:59:22.859Z,8.27
2018-12-11T04:01:53.184Z,8.03
2018-12-11T04:04:23.631Z,6.30
2018-12-11T04:06:54.790Z,10.03
2018-12-11T04:09:25.163Z,8.40
2018-12-11T04:11:55.592Z,8.27
2018-12-11T04:14:25.971Z,7.40
2018-12-11T04:16:56.283Z,6.03
2018-12-11T04:19:26.735Z,6.70
2018-12-11T04:21:57.053Z,8.47
2018-12-11T04:24:35.852Z,7.17
2018-12-11T04:27:06.241Z,9.60
2018-12-11T04:29:36.636Z,6.47
2018-12-11T04:32:07.323Z,7.80
2018-12-11T04:34:37.694Z,7.83
2018-12-11T04:37:08.072Z,7.93
2018-12-11T04:39:38.857Z,5.80
2018-12-11T04:42:11.293Z,6.07
2018-12-11T04:44:42.379Z,5.83
2018-12-11T04:47:14.859Z,8.47
2018-12-11T04:49:52.457Z,7.30
2018-12-11T04:52:26.934Z,7.90
2018-12-11T04:54:57.372Z,7.70
2018-12-11T04:57:27.744Z,6.00
2018-12-11T04:59:58.533Z,5.33
2018-12-11T05:02:28.888Z,10.53
2018-12-11T05:04:59.464Z,4.93
2018-12-11T05:07:29.893Z,4.93
2018-12-11T05:10:00.214Z,7.27
2018-12-11T05:12:30.592Z,7.07
2018-12-11T05:15:01.230Z,8.60
2018-12-11T05:17:35.654Z,9.60
2018-12-11T05:20:10.191Z,9.17
2018-12-11T05:22:40.543Z,7.60
2018-12-11T05:25:32.531Z,7.93
2018-12-11T05:28:02.856Z,8.97
2018-12-11T05:30:33.228Z,8.63
2018-12-11T05:33:03.680Z,7.07
2018-12-11T05:35:34.828Z,8.03
2018-12-11T05:40:49.556Z,7.73
2018-12-11T05:43:20.952Z,8.07
2018-12-11T05:45:52.036Z,8.50
2018-12-11T05:48:25.534Z,9.37
2018-12-11T05:51:02.052Z,8.40
2018-12-11T05:53:32.421Z,6.33
2018-12-11T05:56:05.285Z,7.47
2018-12-11T05:58:37.003Z,6.83
2018-12-11T06:01:07.072Z,8.63
2018-12-11T06:03:37.382Z,7.20
2018-12-11T06:06:08.594Z,6.87
2018-12-11T06:08:38.979Z,8.40
2018-12-11T06:11:09.367Z,8.80
2018-12-11T06:13:39.745Z,9.83
2018-12-11T06:16:12.244Z,7.40
2018-12-11T06:18:42.630Z,11.27
2018-12-11T06:21:15.337Z,8.77
2018-12-11T06:24:05.859Z,13.07
2018-12-11T06:26:36.230Z,13.03
2018-12-11T06:29:06.675Z,9.03
2018-12-11T06:31:55.327Z,9.17
2018-12-11T06:34:27.807Z,9.43
2018-12-11T06:37:00.227Z,8.37
2018-12-11T06:39:30.616Z,11.43
2018-12-11T06:42:03.349Z,10.13
2018-12-11T06:44:33.731Z,8.63
2018-12-11T06:47:04.112Z,9.63
2018-12-11T06:49:34.782Z,10.13
2018-12-11T06:52:05.158Z,8.07
2018-12-11T06:54:38.313Z,8.67
2018-12-11T06:57:08.687Z,9.17
2018-12-11T06:59:39.894Z,8.30
2018-12-11T07:02:10.270Z,10.20
2018-12-11T07:04:40.654Z,9.07
2018-12-11T07:07:11.034Z,11.60
2018-12-11T07:09:43.528Z,10.80
2018-12-11T07:12:35.264Z,9.63
2018-12-11T07:15:05.716Z,12.50
2018-12-11T07:17:36.282Z,8.90
2018-12-11T07:20:06.737Z,9.83
2018-12-11T07:22:56.676Z,12.10
2018-12-11T07:25:28.077Z,10.27
2018-12-11T07:28:17.836Z,7.80
2018-12-11T07:30:48.227Z,9.20
2018-12-11T07:33:20.843Z,8.20
2018-12-11T07:35:51.225Z,10.17
2018-12-11T07:38:21.686Z,8.73
2018-12-11T07:40:52.065Z,8.67
2018-12-11T07:43:22.454Z,10.03
2018-12-11T07:45:52.837Z,11.83
2018-12-11T07:48:23.224Z,12.20
2018-12-11T07:51:14.051Z,9.50
2018-12-11T07:53:44.426Z,10.13
2018-12-11T07:56:14.867Z,11.10
2018-12-11T07:58:45.250Z,6.83
2018-12-11T08:01:16.455Z,9.57
2018-12-11T08:04:08.195Z,10.00
2018-12-11T08:06:39.601Z,10.70
2018-12-11T08:09:09.971Z,7.73
2018-12-11T08:11:40.595Z,5.80
2018-12-11T08:14:10.988Z,6.57
2018-12-11T08:16:42.440Z,8.63
2018-12-11T08:19:12.827Z,6.40
2018-12-11T08:21:43.212Z,5.10
2018-12-11T08:24:16.648Z,6.23
2018-12-11T08:26:47.214Z,6.50
2018-12-11T08:29:17.664Z,8.03
2018-12-11T08:31:48.037Z,9.30
2018-12-11T08:34:18.436Z,10.47
2018-12-11T08:37:09.295Z,8.07
2018-12-11T08:39:40.633Z,5.40
2018-12-11T08:42:11.784Z,7.43
2018-12-11T08:44:42.236Z,5.47
2018-12-11T08:47:12.670Z,3.90
2018-12-11T08:49:43.049Z,9.50
2018-12-11T08:52:14.486Z,6.97
2018-12-11T08:54:44.853Z,10.53
2018-12-11T08:57:15.424Z,9.93
2018-12-11T08:59:48.314Z,6.93
2018-12-11T09:02:18.626Z,11.80
2018-12-11T09:04:48.944Z,9.70
2018-12-11T09:07:23.423Z,8.77
2018-12-11T09:09:54.625Z,8.77
2018-12-11T09:12:27.035Z,7.73
2018-12-11T09:14:57.418Z,11.33
2018-12-11T09:17:47.257Z,9.83
2018-12-11T09:20:18.605Z,11.50
2018-12-11T09:22:49.804Z,9.97
2018-12-11T09:25:20.179Z,9.80
2018-12-11T09:27:51.405Z,10.33
2018-12-11T09:30:21.787Z,9.40
2018-12-11T09:32:52.169Z,10.60
2018-12-11T09:35:23.371Z,11.10
2018-12-11T09:37:59.956Z,11.00
2018-12-11T09:40:30.351Z,12.00
2018-12-11T09:43:00.799Z,11.00
2018-12-11T09:45:31.175Z,12.40
2018-12-11T09:48:01.624Z,14.10
2018-12-11T09:50:32.235Z,10.33
2018-12-11T09:53:03.710Z,11.83
2018-12-11T09:55:34.839Z,12.43
2018-12-11T10:00:49.032Z,16.07
2018-12-11T10:03:19.655Z,10.83
2018-12-11T10:05:50.104Z,13.17
2018-12-11T10:08:26.769Z,12.43
2018-12-11T10:10:57.153Z,11.63
2018-12-11T10:13:28.353Z,12.70
2018-12-11T10:16:05.895Z,14.30
2018-12-11T10:18:38.155Z,13.37
2018-12-11T10:21:08.527Z,13.17
2018-12-11T10:23:38.853Z,13.60
2018-12-11T10:26:09.256Z,9.53
2018-12-11T10:28:40.465Z,12.30
2018-12-11T10:31:10.852Z,12.03
2018-12-11T10:33:45.330Z,9.43
2018-12-11T10:36:16.546Z,11.97
2018-12-11T10:38:47.004Z,11.97
2018-12-11T10:41:17.386Z,12.13
2018-12-11T10:43:47.774Z,10.67
2018-12-11T10:46:18.923Z,13.67
2018-12-11T10:48:49.365Z,23.37
2018-12-11T10:51:19.748Z,19.37
2018-12-11T10:53:50.196Z,17.63
2018-12-11T10:56:21.517Z,15.77
2018-12-11T10:58:52.464Z,15.10
2018-12-11T11:01:22.845Z,9.37
2018-12-11T11:03:59.432Z,12.43
2018-12-11T11:06:49.193Z,13.67
2018-12-11T11:09:19.637Z,10.67
2018-12-11T11:11:54.102Z,12.63
2018-12-11T11:14:25.578Z,14.43
2018-12-11T11:16:55.898Z,15.43
2018-12-11T11:19:27.038Z,14.80
2018-12-11T11:21:58.388Z,12.77
2018-12-11T11:24:28.762Z,14.63
2018-12-11T11:26:59.136Z,14.97
2018-12-11T11:29:29.589Z,13.73
2018-12-11T11:31:59.988Z,12.70
2018-12-11T11:34:31.142Z,16.63
2018-12-11T11:37:01.710Z,13.83
2018-12-11T11:39:32.153Z,13.13
2018-12-11T11:42:02.526Z,14.30
2018-12-11T11:44:33.734Z,14.37
2018-12-11T11:47:04.121Z,15.20
2018-12-11T11:49:36.607Z,13.77
2018-12-11T11:52:13.103Z,12.57
2018-12-11T11:54:44.727Z,14.03
2018-12-11T11:57:18.520Z,12.97
2018-12-11T11:59:49.924Z,13.13
2018-12-11T12:02:20.584Z,13.03
2018-12-11T12:04:51.737Z,14.50
2018-12-11T12:07:23.146Z,12.53
2018-12-11T12:09:53.583Z,12.73
2018-12-11T12:12:23.953Z,11.87
2018-12-11T12:14:54.397Z,15.83
2018-12-11T12:17:30.915Z,14.10
2018-12-11T12:20:01.361Z,15.93
2018-12-11T12:22:32.443Z,15.17
2018-12-11T12:25:10.037Z,17.07
2018-12-11T12:27:40.410Z,12.23
2018-12-11T12:30:11.627Z,14.70
2018-12-11T12:32:42.010Z,14.67
2018-12-11T12:35:13.666Z,15.67
2018-12-11T12:37:44.283Z,15.80
2018-12-11T12:40:15.682Z,14.27
2018-12-11T12:42:49.117Z,14.33
2018-12-11T12:45:20.335Z,12.47
2018-12-11T12:47:50.742Z,14.40
2018-12-11T12:50:22.560Z,15.13
2018-12-11T12:52:53.711Z,26.83
2018-12-11T12:55:24.867Z,25.20
2018-12-11T12:57:55.267Z,22.17
2018-12-11T13:00:25.659Z,29.83
2018-12-11T13:03:15.477Z,24.23
2018-12-11T13:05:45.922Z,18.77
2018-12-11T13:08:17.066Z,20.97
2018-12-11T13:10:47.526Z,20.77
2018-12-11T13:13:21.994Z,18.83
2018-12-11T13:15:52.422Z,16.83
2018-12-11T13:18:22.799Z,14.27
2018-12-11T13:20:56.251Z,15.97
2018-12-11T13:23:26.684Z,14.43
2018-12-11T13:25:57.072Z,15.90
2018-12-11T13:28:27.450Z,12.90
2018-12-11T13:30:57.889Z,14.07
2018-12-11T13:33:28.260Z,11.23
2018-12-11T13:35:59.721Z,14.20
2018-12-11T13:38:30.094Z,10.37
2018-12-11T13:41:00.530Z,14.93
2018-12-11T13:43:30.916Z,11.03
2018-12-11T13:46:02.289Z,10.93
2018-12-11T13:48:32.732Z,9.27
2018-12-11T13:51:03.372Z,11.00
2018-12-11T13:53:47.925Z,11.80
2018-12-11T13:56:18.363Z,11.80
2018-12-11T13:58:56.131Z,9.27
2018-12-11T14:01:26.573Z,11.07
2018-12-11T14:03:57.978Z,8.83
2018-12-11T14:06:28.407Z,8.50
2018-12-11T14:11:42.493Z,9.47
2018-12-11T14:14:12.866Z,13.10
2018-12-11T14:16:50.615Z,8.13
2018-12-11T14:19:22.769Z,9.47
2018-12-11T14:21:53.153Z,8.63
2018-12-11T14:24:29.989Z,10.37
2018-12-11T14:27:01.456Z,8.97
2018-12-11T14:29:31.900Z,8.57
2018-12-11T14:32:02.334Z,9.97
2018-12-11T14:34:32.708Z,9.73
2018-12-11T14:37:03.141Z,8.17
2018-12-11T14:39:33.526Z,10.47
2018-12-11T14:42:08.077Z,8.37
2018-12-11T14:44:38.461Z,10.60
2018-12-11T14:47:10.948Z,9.57
2018-12-11T14:50:00.709Z,6.80
2018-12-11T14:52:31.149Z,7.33
2018-12-11T14:55:03.578Z,10.67
2018-12-11T14:57:34.017Z,8.50
2018-12-11T15:00:05.154Z,7.50
2018-12-11T15:02:35.600Z,8.83
2018-12-11T15:05:05.972Z,7.60
2018-12-11T15:07:36.411Z,6.97
2018-12-11T15:10:07.806Z,7.63
2018-12-11T15:12:38.521Z,8.97
2018-12-11T15:15:09.655Z,8.10
2018-12-11T15:17:40.037Z,6.50
2018-12-11T15:20:12.529Z,10.67
2018-12-11T15:22:43.205Z,24.43
2018-12-11T15:25:14.353Z,10.40
2018-12-11T15:27:46.014Z,5.33
2018-12-11T15:30:16.380Z,8.97
2018-12-11T15:32:48.742Z,9.13
2018-12-11T15:35:23.262Z,8.93
2018-12-11T15:37:53.695Z,8.70
2018-12-11T15:40:24.291Z,15.52
2018-12-11T15:42:55.688Z,9.93
2018-12-11T15:45:33.383Z,15.30
2018-12-11T15:48:03.827Z,15.60
2018-12-11T15:50:34.203Z,15.33
2018-12-11T15:53:05.670Z,19.70
2018-12-11T15:55:35.991Z,15.27
2018-12-11T15:58:06.437Z,14.33
2018-12-11T16:00:36.811Z,11.70
2018-12-11T16:03:08.376Z,10.77
2018-12-11T16:05:38.772Z,13.33
2018-12-11T16:08:09.142Z,13.37
2018-12-11T16:10:39.777Z,12.40
2018-12-11T16:13:10.089Z,11.17
2018-12-11T16:15:41.436Z,12.37
2018-12-11T16:18:12.648Z,18.50
2018-12-11T16:20:42.971Z,24.53
2018-12-11T16:23:13.543Z,25.20
2018-12-11T16:25:44.886Z,20.80
2018-12-11T16:28:15.515Z,18.53
2018-12-11T16:30:45.834Z,16.93
2018-12-11T16:33:16.483Z,16.23
2018-12-11T16:35:47.110Z,11.80
2018-12-11T16:38:17.735Z,14.00
2018-12-11T16:40:49.204Z,16.60
2018-12-11T16:43:19.526Z,15.30
2018-12-11T16:45:49.843Z,17.17
2018-12-11T16:48:21.001Z,15.70
2018-12-11T16:50:51.622Z,15.00
2018-12-11T16:53:22.968Z,15.80
2018-12-11T16:55:54.505Z,14.87
2018-12-11T16:58:25.154Z,16.07
2018-12-11T17:00:57.749Z,15.77
2018-12-11T17:03:28.778Z,17.03
2018-12-11T17:05:59.405Z,13.63
2018-12-11T17:08:29.987Z,14.23
2018-12-11T17:11:00.301Z,9.07
2018-12-11T17:13:30.712Z,17.75
2018-12-11T17:16:01.273Z,16.83
2018-12-11T17:18:31.950Z,14.80
2018-12-11T17:21:02.290Z,13.80
2018-12-11T17:23:32.907Z,16.83
2018-12-11T17:26:03.996Z,15.10
2018-12-11T17:28:39.199Z,18.57
2018-12-11T17:31:10.340Z,17.60
2018-12-11T17:33:41.692Z,16.23
2018-12-11T17:36:12.035Z,15.30
2018-12-11T17:38:42.355Z,14.07
2018-12-11T17:41:13.770Z,15.93
2018-12-11T17:43:44.419Z,13.03
2018-12-11T17:46:14.980Z,19.40
2018-12-11T17:48:45.307Z,15.90
2018-12-11T17:51:15.641Z,17.43
2018-12-11T17:53:49.340Z,16.53
2018-12-11T17:56:21.775Z,17.73
2018-12-11T17:58:52.875Z,17.13
2018-12-11T18:01:44.970Z,16.83
2018-12-11T18:04:15.586Z,14.90
2018-12-11T18:06:46.739Z,14.97
2018-12-11T18:09:17.964Z,14.07
2018-12-11T18:11:48.346Z,17.47
2018-12-11T18:14:21.693Z,13.77
2018-12-11T18:16:52.847Z,15.10
2018-12-11T18:19:23.289Z,19.37
2018-12-11T18:24:56.753Z,27.13
2018-12-11T18:27:27.450Z,23.10
2018-12-11T18:29:57.898Z,20.33
2018-12-11T18:32:28.275Z,21.73
2018-12-11T18:34:59.627Z,19.67
2018-12-11T18:37:30.770Z,16.10
2018-12-11T18:40:02.019Z,18.73
2018-12-11T18:42:33.378Z,21.63
2018-12-11T18:45:04.469Z,18.83
2018-12-11T18:47:34.899Z,18.33
2018-12-11T18:50:09.429Z,19.00
2018-12-11T18:52:40.837Z,22.13
2018-12-11T18:55:11.163Z,22.97
2018-12-11T18:57:41.569Z,23.33
2018-12-11T19:00:12.663Z,20.70
2018-12-11T19:03:02.705Z,20.63
2018-12-11T19:05:34.154Z,23.07
2018-12-11T19:08:05.307Z,21.07
2018-12-11T19:10:35.623Z,18.33
2018-12-11T19:13:06.830Z,19.83
2018-12-11T19:15:38.311Z,21.80
2018-12-11T19:18:08.687Z,19.40
2018-12-11T19:20:45.217Z,20.17
2018-12-11T19:23:16.309Z,22.60
2018-12-11T19:26:08.176Z,19.20
2018-12-11T19:28:38.553Z,21.87
2018-12-11T19:31:13.032Z,24.60
2018-12-11T19:33:45.415Z,23.77
2018-12-11T19:36:16.572Z,23.50
2018-12-11T19:38:47.910Z,21.73
2018-12-11T19:41:18.581Z,21.03
2018-12-11T19:43:50.949Z,21.07
2018-12-11T19:46:26.686Z,22.97
2018-12-11T19:48:57.010Z,21.73
2018-12-11T19:51:27.394Z,23.53
2018-12-11T19:53:58.798Z,19.13
2018-12-11T19:56:29.263Z,24.00
2018-12-11T19:59:00.079Z,26.87
2018-12-11T20:01:30.463Z,26.03
2018-12-11T20:04:01.189Z,24.03
2018-12-11T20:06:31.566Z,26.10
2018-12-11T20:09:09.200Z,26.33
2018-12-11T20:11:40.350Z,26.47
2018-12-11T20:14:10.724Z,26.73
2018-12-11T20:16:43.267Z,23.80
2018-12-11T20:19:14.611Z,23.33
2018-12-11T20:21:45.818Z,26.20
2018-12-11T20:24:16.198Z,23.33
2018-12-11T20:26:46.587Z,20.93
2018-12-11T20:29:16.974Z,22.17
2018-12-11T20:31:47.423Z,21.80
2018-12-11T20:34:17.804Z,23.17
2018-12-11T20:36:48.419Z,22.23
2018-12-11T20:39:19.565Z,19.00
2018-12-11T20:41:50.669Z,20.27
2018-12-11T20:44:20.988Z,20.27
2018-12-11T20:46:52.463Z,22.27
2018-12-11T20:49:22.835Z,24.40
2018-12-11T20:51:53.226Z,23.27
2018-12-11T20:54:24.322Z,27.60
2018-12-11T20:57:14.078Z,27.80
2018-12-11T20:59:44.455Z,33.63
2018-12-11T21:02:15.614Z,50.33
2018-12-11T21:04:45.949Z,56.77
2018-12-11T21:07:17.087Z,42.57
2018-12-11T21:09:47.675Z,39.67
2018-12-11T21:12:18.072Z,34.10
2018-12-11T21:14:48.449Z,25.33
2018-12-11T21:17:18.852Z,23.50
2018-12-11T21:19:55.561Z,23.73
2018-12-11T21:22:26.009Z,23.13
2018-12-11T21:24:57.163Z,26.10
2018-12-11T21:27:28.380Z,26.53
2018-12-11T21:29:58.711Z,29.33
2018-12-11T21:32:29.182Z,27.63
2018-12-11T21:34:59.566Z,27.03
2018-12-11T21:37:30.306Z,23.63
2018-12-11T21:40:00.650Z,23.17
2018-12-11T21:42:31.778Z,25.10
2018-12-11T21:45:02.973Z,19.83
2018-12-11T21:47:33.669Z,25.67
2018-12-11T21:50:04.823Z,21.10
2018-12-11T21:52:35.456Z,20.40
2018-12-11T21:55:05.813Z,18.80
2018-12-11T21:57:43.508Z,19.43
2018-12-11T22:00:14.205Z,19.10
2018-12-11T22:02:45.859Z,18.30
2018-12-11T22:05:16.241Z,20.70
2018-12-11T22:07:46.864Z,18.17
2018-12-11T22:10:37.385Z,16.50
2018-12-11T22:13:08.158Z,18.83
2018-12-11T22:15:39.315Z,19.30
2018-12-11T22:18:09.693Z,23.17
2018-12-11T22:20:40.062Z,19.23
2018-12-11T22:23:10.449Z,21.27
2018-12-11T22:25:40.832Z,21.90
2018-12-11T22:28:11.299Z,18.93
2018-12-11T22:30:41.690Z,23.17
2018-12-11T22:33:12.064Z,21.83
2018-12-11T22:38:25.616Z,22.43
2018-12-11T22:40:56.282Z,20.63
2018-12-11T22:43:26.654Z,24.27
2018-12-11T22:45:59.272Z,22.10
2018-12-11T22:48:29.718Z,21.77
2018-12-11T22:51:00.096Z,21.37
2018-12-11T22:53:30.479Z,21.33
2018-12-11T22:56:00.932Z,20.57
2018-12-11T22:58:31.306Z,18.60
2018-12-11T23:01:02.452Z,21.13
2018-12-11T23:03:32.883Z,21.33
2018-12-11T23:06:03.973Z,23.97
2018-12-11T23:08:34.359Z,21.43
2018-12-11T23:11:06.571Z,24.67
2018-12-11T23:13:41.246Z,21.13
2018-12-11T23:16:13.207Z,22.50
2018-12-11T23:18:44.298Z,22.23
2018-12-11T23:21:16.727Z,24.70
2018-12-11T23:23:47.871Z,19.10
2018-12-11T23:26:19.221Z,22.17
2018-12-11T23:28:49.851Z,23.27
2018-12-11T23:31:21.011Z,19.80
2018-12-11T23:33:51.331Z,22.10
2018-12-11T23:36:23.443Z,21.97
2018-12-11T23:39:14.281Z,19.77
2018-12-11T23:41:44.603Z,21.83
2018-12-11T23:44:14.981Z,21.10
2018-12-11T23:46:46.458Z,21.00
2018-12-11T23:49:17.857Z,20.40
2018-12-11T23:51:49.308Z,21.27
2018-12-11T23:54:20.752Z,21.17
2018-12-11T23:56:51.938Z,20.43
2018-12-11T23:59:22.258Z,20.43
